sensor_id;sensor_type;location;lat;lon;timestamp;pressure;altitude;pressure_sealevel;temperature;humidity
73383;BME280;61600;48.126;11.542;2023-05-23T00:01:42;95304.19;;;21.31;53.95
73383;BME280;61600;48.126;11.542;2023-05-23T00:04:10;95300.78;;;21.22;54.11
73383;BME280;61600;48.126;11.542;2023-05-23T00:06:44;95301.47;;;21.00;54.19
73383;BME280;61600;48.126;11.542;2023-05-23T00:09:15;95303.44;;;20.84;54.80
73383;BME280;61600;48.126;11.542;2023-05-23T00:11:41;95292.47;;;20.87;55.37
73383;BME280;61600;48.126;11.542;2023-05-23T00:14:11;95293.63;;;20.86;55.52
73383;BME280;61600;48.126;11.542;2023-05-23T00:16:39;95293.09;;;20.81;55.50
73383;BME280;61600;48.126;11.542;2023-05-23T00:19:06;95296.03;;;20.88;55.41
73383;BME280;61600;48.126;11.542;2023-05-23T00:21:32;95301.56;;;20.88;55.38
73383;BME280;61600;48.126;11.542;2023-05-23T00:23:58;95289.34;;;20.89;54.72
73383;BME280;61600;48.126;11.542;2023-05-23T00:26:24;95307.72;;;20.81;55.32
73383;BME280;61600;48.126;11.542;2023-05-23T00:28:49;95309.34;;;20.35;56.33
73383;BME280;61600;48.126;11.542;2023-05-23T00:31:15;95306.50;;;20.48;55.77
73383;BME280;61600;48.126;11.542;2023-05-23T00:33:42;95304.34;;;20.57;55.92
73383;BME280;61600;48.126;11.542;2023-05-23T00:36:07;95301.25;;;20.58;56.19
73383;BME280;61600;48.126;11.542;2023-05-23T00:38:33;95304.44;;;20.60;55.65
73383;BME280;61600;48.126;11.542;2023-05-23T00:41:00;95305.31;;;20.49;57.00
73383;BME280;61600;48.126;11.542;2023-05-23T00:43:26;95306.13;;;20.49;56.24
73383;BME280;61600;48.126;11.542;2023-05-23T00:45:52;95311.94;;;20.60;56.02
73383;BME280;61600;48.126;11.542;2023-05-23T00:48:17;95304.84;;;20.15;56.74
73383;BME280;61600;48.126;11.542;2023-05-23T00:50:44;95309.06;;;20.56;56.13
73383;BME280;61600;48.126;11.542;2023-05-23T00:53:11;95302.66;;;20.68;55.70
73383;BME280;61600;48.126;11.542;2023-05-23T00:55:37;95312.28;;;20.42;55.83
73383;BME280;61600;48.126;11.542;2023-05-23T00:58:04;95312.03;;;20.48;56.26
73383;BME280;61600;48.126;11.542;2023-05-23T01:00:30;95313.44;;;20.57;56.02
73383;BME280;61600;48.126;11.542;2023-05-23T01:02:58;95306.78;;;20.58;55.90
73383;BME280;61600;48.126;11.542;2023-05-23T01:05:30;95311.13;;;20.59;55.76
73383;BME280;61600;48.126;11.542;2023-05-23T01:07:56;95301.13;;;20.70;55.59
73383;BME280;61600;48.126;11.542;2023-05-23T01:10:26;95301.66;;;20.76;55.70
73383;BME280;61600;48.126;11.542;2023-05-23T01:15:56;95316.06;;;20.22;57.00
73383;BME280;61600;48.126;11.542;2023-05-23T01:18:32;95316.13;;;20.54;56.05
73383;BME280;61600;48.126;11.542;2023-05-23T01:21:06;95315.22;;;20.50;55.62
73383;BME280;61600;48.126;11.542;2023-05-23T01:24:12;95315.75;;;20.39;56.00
73383;BME280;61600;48.126;11.542;2023-05-23T01:29:37;95326.81;;;20.55;55.86
73383;BME280;61600;48.126;11.542;2023-05-23T01:32:06;95319.16;;;20.64;55.64
73383;BME280;61600;48.126;11.542;2023-05-23T01:34:37;95323.25;;;20.55;55.49
73383;BME280;61600;48.126;11.542;2023-05-23T01:37:09;95318.34;;;20.64;55.29
73383;BME280;61600;48.126;11.542;2023-05-23T01:39:44;95326.25;;;20.34;56.33
73383;BME280;61600;48.126;11.542;2023-05-23T01:42:25;95316.84;;;20.51;55.61
73383;BME280;61600;48.126;11.542;2023-05-23T01:44:54;95319.31;;;20.56;55.67
73383;BME280;61600;48.126;11.542;2023-05-23T01:47:31;95328.25;;;20.49;55.99
73383;BME280;61600;48.126;11.542;2023-05-23T01:49:58;95322.00;;;20.36;55.82
73383;BME280;61600;48.126;11.542;2023-05-23T01:52:23;95333.94;;;20.40;56.03
73383;BME280;61600;48.126;11.542;2023-05-23T01:54:51;95333.78;;;20.21;55.84
73383;BME280;61600;48.126;11.542;2023-05-23T01:57:17;95338.22;;;20.38;56.12
73383;BME280;61600;48.126;11.542;2023-05-23T01:59:44;95343.41;;;20.39;55.99
73383;BME280;61600;48.126;11.542;2023-05-23T02:02:10;95332.97;;;20.33;56.24
73383;BME280;61600;48.126;11.542;2023-05-23T02:04:36;95340.06;;;20.34;56.06
73383;BME280;61600;48.126;11.542;2023-05-23T02:07:02;95348.03;;;20.35;56.21
73383;BME280;61600;48.126;11.542;2023-05-23T02:09:27;95339.31;;;20.21;56.10
73383;BME280;61600;48.126;11.542;2023-05-23T02:11:53;95348.97;;;20.27;56.33
73383;BME280;61600;48.126;11.542;2023-05-23T02:14:20;95341.84;;;19.99;57.55
73383;BME280;61600;48.126;11.542;2023-05-23T02:16:45;95343.66;;;20.07;57.18
73383;BME280;61600;48.126;11.542;2023-05-23T02:19:11;95346.31;;;20.03;57.49
73383;BME280;61600;48.126;11.542;2023-05-23T02:21:37;95338.19;;;19.94;57.30
73383;BME280;61600;48.126;11.542;2023-05-23T02:24:03;95347.88;;;19.88;58.08
73383;BME280;61600;48.126;11.542;2023-05-23T02:26:29;95344.88;;;19.93;57.76
73383;BME280;61600;48.126;11.542;2023-05-23T02:28:54;95350.63;;;19.61;58.74
73383;BME280;61600;48.126;11.542;2023-05-23T02:31:20;95347.06;;;19.88;57.96
73383;BME280;61600;48.126;11.542;2023-05-23T02:33:46;95344.97;;;19.97;57.50
73383;BME280;61600;48.126;11.542;2023-05-23T02:36:12;95352.41;;;20.09;57.03
73383;BME280;61600;48.126;11.542;2023-05-23T02:38:38;95352.66;;;20.04;57.07
73383;BME280;61600;48.126;11.542;2023-05-23T02:41:04;95355.72;;;19.86;57.74
73383;BME280;61600;48.126;11.542;2023-05-23T02:43:29;95357.25;;;19.72;58.18
73383;BME280;61600;48.126;11.542;2023-05-23T02:45:55;95356.81;;;19.70;58.20
73383;BME280;61600;48.126;11.542;2023-05-23T02:48:20;95368.38;;;19.87;57.85
73383;BME280;61600;48.126;11.542;2023-05-23T02:50:46;95371.91;;;19.88;58.06
73383;BME280;61600;48.126;11.542;2023-05-23T02:53:12;95360.44;;;19.86;57.90
73383;BME280;61600;48.126;11.542;2023-05-23T02:55:38;95366.88;;;19.78;57.36
73383;BME280;61600;48.126;11.542;2023-05-23T02:58:03;95365.94;;;19.46;59.31
73383;BME280;61600;48.126;11.542;2023-05-23T03:00:30;95350.66;;;19.49;59.37
73383;BME280;61600;48.126;11.542;2023-05-23T03:02:57;95355.19;;;19.69;58.82
73383;BME280;61600;48.126;11.542;2023-05-23T03:05:22;95361.56;;;19.57;58.27
73383;BME280;61600;48.126;11.542;2023-05-23T03:07:48;95356.84;;;19.58;58.94
73383;BME280;61600;48.126;11.542;2023-05-23T03:10:16;95361.72;;;19.49;59.37
73383;BME280;61600;48.126;11.542;2023-05-23T03:12:46;95365.59;;;19.48;59.68
73383;BME280;61600;48.126;11.542;2023-05-23T03:15:12;95363.19;;;19.34;59.86
73383;BME280;61600;48.126;11.542;2023-05-23T03:17:38;95366.31;;;19.20;60.65
73383;BME280;61600;48.126;11.542;2023-05-23T03:20:04;95368.38;;;19.23;59.93
73383;BME280;61600;48.126;11.542;2023-05-23T03:22:34;95363.31;;;19.25;60.52
73383;BME280;61600;48.126;11.542;2023-05-23T03:25:01;95368.00;;;19.37;60.05
73383;BME280;61600;48.126;11.542;2023-05-23T03:27:26;95371.56;;;19.50;59.90
73383;BME280;61600;48.126;11.542;2023-05-23T03:29:52;95376.09;;;19.06;60.96
73383;BME280;61600;48.126;11.542;2023-05-23T03:32:18;95370.91;;;19.16;60.32
73383;BME280;61600;48.126;11.542;2023-05-23T03:34:43;95372.16;;;19.31;60.74
73383;BME280;61600;48.126;11.542;2023-05-23T03:37:09;95374.34;;;19.37;60.11
73383;BME280;61600;48.126;11.542;2023-05-23T03:39:35;95373.88;;;19.48;60.15
73383;BME280;61600;48.126;11.542;2023-05-23T03:42:01;95378.97;;;19.46;60.38
73383;BME280;61600;48.126;11.542;2023-05-23T03:44:27;95374.22;;;19.46;60.40
73383;BME280;61600;48.126;11.542;2023-05-23T03:46:52;95369.88;;;19.45;60.24
73383;BME280;61600;48.126;11.542;2023-05-23T03:49:18;95372.38;;;19.38;60.45
73383;BME280;61600;48.126;11.542;2023-05-23T03:51:44;95376.66;;;19.48;60.37
73383;BME280;61600;48.126;11.542;2023-05-23T03:54:10;95379.72;;;19.46;59.93
73383;BME280;61600;48.126;11.542;2023-05-23T03:56:38;95381.34;;;19.35;60.94
73383;BME280;61600;48.126;11.542;2023-05-23T03:59:07;95379.28;;;19.32;60.77
73383;BME280;61600;48.126;11.542;2023-05-23T04:01:33;95387.22;;;19.21;61.41
73383;BME280;61600;48.126;11.542;2023-05-23T04:03:58;95385.47;;;19.29;60.77
73383;BME280;61600;48.126;11.542;2023-05-23T04:06:25;95381.47;;;19.38;60.70
73383;BME280;61600;48.126;11.542;2023-05-23T04:08:50;95379.41;;;19.48;60.30
73383;BME280;61600;48.126;11.542;2023-05-23T04:11:16;95380.31;;;19.52;60.29
73383;BME280;61600;48.126;11.542;2023-05-23T04:13:42;95387.00;;;19.38;60.67
73383;BME280;61600;48.126;11.542;2023-05-23T04:16:08;95392.84;;;19.37;60.80
73383;BME280;61600;48.126;11.542;2023-05-23T04:18:34;95393.91;;;19.44;60.57
73383;BME280;61600;48.126;11.542;2023-05-23T04:21:00;95395.94;;;19.35;60.76
73383;BME280;61600;48.126;11.542;2023-05-23T04:23:26;95395.94;;;19.48;60.61
73383;BME280;61600;48.126;11.542;2023-05-23T04:25:52;95394.91;;;19.40;61.04
73383;BME280;61600;48.126;11.542;2023-05-23T04:28:18;95392.63;;;19.30;60.99
73383;BME280;61600;48.126;11.542;2023-05-23T04:30:43;95413.88;;;19.05;61.90
73383;BME280;61600;48.126;11.542;2023-05-23T04:33:09;95413.22;;;19.44;61.22
73383;BME280;61600;48.126;11.542;2023-05-23T04:35:36;95412.94;;;19.50;60.31
73383;BME280;61600;48.126;11.542;2023-05-23T04:38:04;95422.13;;;19.66;60.27
73383;BME280;61600;48.126;11.542;2023-05-23T04:40:29;95421.06;;;19.70;60.15
73383;BME280;61600;48.126;11.542;2023-05-23T04:42:56;95411.22;;;19.69;60.32
73383;BME280;61600;48.126;11.542;2023-05-23T04:45:22;95409.25;;;19.58;60.84
73383;BME280;61600;48.126;11.542;2023-05-23T04:47:48;95411.38;;;19.49;60.82
73383;BME280;61600;48.126;11.542;2023-05-23T04:50:13;95412.50;;;19.60;60.57
73383;BME280;61600;48.126;11.542;2023-05-23T04:52:40;95408.22;;;19.62;60.72
73383;BME280;61600;48.126;11.542;2023-05-23T04:55:06;95405.59;;;19.29;61.54
73383;BME280;61600;48.126;11.542;2023-05-23T04:57:33;95417.47;;;19.42;61.76
73383;BME280;61600;48.126;11.542;2023-05-23T05:00:00;95416.88;;;19.49;61.76
73383;BME280;61600;48.126;11.542;2023-05-23T05:02:26;95429.81;;;19.72;60.29
73383;BME280;61600;48.126;11.542;2023-05-23T05:04:52;95425.63;;;19.90;60.24
73383;BME280;61600;48.126;11.542;2023-05-23T05:07:18;95431.06;;;19.75;61.11
73383;BME280;61600;48.126;11.542;2023-05-23T05:09:43;95431.41;;;19.85;60.44
73383;BME280;61600;48.126;11.542;2023-05-23T05:12:09;95428.41;;;19.78;60.65
73383;BME280;61600;48.126;11.542;2023-05-23T05:14:36;95432.50;;;20.09;59.86
73383;BME280;61600;48.126;11.542;2023-05-23T05:17:01;95423.19;;;20.01;60.08
73383;BME280;61600;48.126;11.542;2023-05-23T05:19:28;95424.13;;;20.21;59.52
73383;BME280;61600;48.126;11.542;2023-05-23T05:21:54;95423.44;;;20.24;59.59
73383;BME280;61600;48.126;11.542;2023-05-23T05:24:20;95426.03;;;19.65;61.58
73383;BME280;61600;48.126;11.542;2023-05-23T05:26:50;95418.56;;;20.05;60.33
73383;BME280;61600;48.126;11.542;2023-05-23T05:29:16;95417.66;;;20.01;60.00
73383;BME280;61600;48.126;11.542;2023-05-23T05:31:41;95420.91;;;20.31;59.88
73383;BME280;61600;48.126;11.542;2023-05-23T05:34:10;95421.38;;;20.49;59.32
73383;BME280;61600;48.126;11.542;2023-05-23T05:36:36;95414.72;;;20.50;58.85
73383;BME280;61600;48.126;11.542;2023-05-23T05:39:01;95406.41;;;20.50;59.22
73383;BME280;61600;48.126;11.542;2023-05-23T05:41:27;95413.09;;;20.21;60.41
73383;BME280;61600;48.126;11.542;2023-05-23T05:43:53;95422.03;;;20.73;58.63
73383;BME280;61600;48.126;11.542;2023-05-23T05:46:19;95416.88;;;20.28;59.69
73383;BME280;61600;48.126;11.542;2023-05-23T05:48:45;95419.53;;;20.53;59.25
73383;BME280;61600;48.126;11.542;2023-05-23T05:51:11;95423.56;;;20.71;58.94
73383;BME280;61600;48.126;11.542;2023-05-23T05:53:37;95427.94;;;20.87;58.70
73383;BME280;61600;48.126;11.542;2023-05-23T05:56:03;95431.78;;;20.67;59.25
73383;BME280;61600;48.126;11.542;2023-05-23T05:58:29;95433.38;;;20.68;59.44
73383;BME280;61600;48.126;11.542;2023-05-23T06:00:56;95432.47;;;20.80;59.18
73383;BME280;61600;48.126;11.542;2023-05-23T06:03:22;95444.41;;;20.53;60.24
73383;BME280;61600;48.126;11.542;2023-05-23T06:05:49;95442.00;;;20.51;60.16
73383;BME280;61600;48.126;11.542;2023-05-23T06:08:14;95455.69;;;20.75;59.10
73383;BME280;61600;48.126;11.542;2023-05-23T06:10:40;95443.44;;;20.76;58.86
73383;BME280;61600;48.126;11.542;2023-05-23T06:13:06;95454.84;;;20.59;60.03
73383;BME280;61600;48.126;11.542;2023-05-23T06:15:31;95446.59;;;20.75;59.35
73383;BME280;61600;48.126;11.542;2023-05-23T06:17:57;95443.94;;;21.10;58.48
73383;BME280;61600;48.126;11.542;2023-05-23T06:20:23;95438.59;;;21.32;57.81
73383;BME280;61600;48.126;11.542;2023-05-23T06:22:49;95438.31;;;21.22;58.45
73383;BME280;61600;48.126;11.542;2023-05-23T06:25:15;95451.31;;;20.74;59.24
73383;BME280;61600;48.126;11.542;2023-05-23T06:27:41;95442.41;;;20.81;59.45
73383;BME280;61600;48.126;11.542;2023-05-23T06:30:07;95451.56;;;20.69;59.62
73383;BME280;61600;48.126;11.542;2023-05-23T06:32:33;95452.66;;;20.25;60.61
73383;BME280;61600;48.126;11.542;2023-05-23T06:34:58;95460.44;;;20.07;61.20
73383;BME280;61600;48.126;11.542;2023-05-23T06:37:24;95457.41;;;20.52;60.15
73383;BME280;61600;48.126;11.542;2023-05-23T06:39:50;95448.78;;;20.54;60.28
73383;BME280;61600;48.126;11.542;2023-05-23T06:42:16;95454.59;;;20.80;59.62
73383;BME280;61600;48.126;11.542;2023-05-23T06:44:41;95451.59;;;21.01;59.09
73383;BME280;61600;48.126;11.542;2023-05-23T06:47:09;95450.25;;;20.94;59.08
73383;BME280;61600;48.126;11.542;2023-05-23T06:49:35;95463.81;;;20.84;60.04
73383;BME280;61600;48.126;11.542;2023-05-23T06:52:01;95463.03;;;20.99;59.48
73383;BME280;61600;48.126;11.542;2023-05-23T06:54:26;95454.09;;;21.06;59.12
73383;BME280;61600;48.126;11.542;2023-05-23T06:56:52;95449.81;;;21.08;59.36
73383;BME280;61600;48.126;11.542;2023-05-23T06:59:18;95464.03;;;21.38;58.90
73383;BME280;61600;48.126;11.542;2023-05-23T07:01:44;95460.91;;;21.24;59.03
73383;BME280;61600;48.126;11.542;2023-05-23T07:04:10;95461.00;;;21.27;58.88
73383;BME280;61600;48.126;11.542;2023-05-23T07:06:36;95456.97;;;21.56;58.12
73383;BME280;61600;48.126;11.542;2023-05-23T07:09:03;95454.31;;;21.79;57.50
73383;BME280;61600;48.126;11.542;2023-05-23T07:11:29;95463.00;;;21.77;57.51
73383;BME280;61600;48.126;11.542;2023-05-23T07:13:55;95468.06;;;21.75;57.47
73383;BME280;61600;48.126;11.542;2023-05-23T07:16:21;95462.19;;;21.77;57.28
73383;BME280;61600;48.126;11.542;2023-05-23T07:18:48;95462.97;;;21.93;57.05
73383;BME280;61600;48.126;11.542;2023-05-23T07:21:14;95465.53;;;22.02;56.62
73383;BME280;61600;48.126;11.542;2023-05-23T07:23:40;95473.28;;;22.12;56.40
73383;BME280;61600;48.126;11.542;2023-05-23T07:26:06;95483.88;;;22.25;56.05
73383;BME280;61600;48.126;11.542;2023-05-23T07:28:34;95476.16;;;22.00;56.82
73383;BME280;61600;48.126;11.542;2023-05-23T07:31:00;95470.50;;;22.12;56.67
73383;BME280;61600;48.126;11.542;2023-05-23T07:33:27;95480.28;;;22.25;56.26
73383;BME280;61600;48.126;11.542;2023-05-23T07:35:52;95479.41;;;22.21;56.35
73383;BME280;61600;48.126;11.542;2023-05-23T07:38:18;95480.44;;;22.13;56.09
73383;BME280;61600;48.126;11.542;2023-05-23T07:40:44;95481.38;;;22.39;55.12
73383;BME280;61600;48.126;11.542;2023-05-23T07:43:10;95475.78;;;22.36;55.52
73383;BME280;61600;48.126;11.542;2023-05-23T07:45:36;95474.97;;;22.16;56.14
73383;BME280;61600;48.126;11.542;2023-05-23T07:48:01;95482.25;;;22.05;56.42
73383;BME280;61600;48.126;11.542;2023-05-23T07:50:27;95490.56;;;22.24;55.84
73383;BME280;61600;48.126;11.542;2023-05-23T07:52:53;95490.78;;;22.16;55.63
73383;BME280;61600;48.126;11.542;2023-05-23T07:55:19;95489.50;;;21.94;56.48
73383;BME280;61600;48.126;11.542;2023-05-23T07:57:45;95486.38;;;21.96;56.47
73383;BME280;61600;48.126;11.542;2023-05-23T08:00:12;95483.97;;;21.78;56.76
73383;BME280;61600;48.126;11.542;2023-05-23T08:02:38;95481.34;;;21.85;56.82
73383;BME280;61600;48.126;11.542;2023-05-23T08:05:04;95495.69;;;21.72;57.27
73383;BME280;61600;48.126;11.542;2023-05-23T08:07:29;95491.00;;;21.57;58.49
73383;BME280;61600;48.126;11.542;2023-05-23T08:09:55;95498.19;;;21.77;57.77
73383;BME280;61600;48.126;11.542;2023-05-23T08:12:21;95490.84;;;21.84;57.28
73383;BME280;61600;48.126;11.542;2023-05-23T08:14:47;95501.44;;;21.63;57.87
73383;BME280;61600;48.126;11.542;2023-05-23T08:17:13;95499.97;;;21.69;57.87
73383;BME280;61600;48.126;11.542;2023-05-23T08:19:38;95499.47;;;21.64;57.53
73383;BME280;61600;48.126;11.542;2023-05-23T08:22:04;95506.16;;;21.47;58.11
73383;BME280;61600;48.126;11.542;2023-05-23T08:24:30;95495.72;;;21.40;58.54
73383;BME280;61600;48.126;11.542;2023-05-23T08:26:56;95502.84;;;21.73;57.53
73383;BME280;61600;48.126;11.542;2023-05-23T08:29:22;95503.81;;;21.80;56.82
73383;BME280;61600;48.126;11.542;2023-05-23T08:31:47;95516.13;;;21.83;56.64
73383;BME280;61600;48.126;11.542;2023-05-23T08:34:13;95506.75;;;21.87;55.40
73383;BME280;61600;48.126;11.542;2023-05-23T08:36:39;95517.56;;;21.77;56.61
73383;BME280;61600;48.126;11.542;2023-05-23T08:39:07;95509.47;;;22.19;55.65
73383;BME280;61600;48.126;11.542;2023-05-23T08:41:33;95509.38;;;22.34;54.45
73383;BME280;61600;48.126;11.542;2023-05-23T08:43:59;95516.94;;;22.34;54.89
73383;BME280;61600;48.126;11.542;2023-05-23T08:46:26;95517.19;;;22.29;54.52
73383;BME280;61600;48.126;11.542;2023-05-23T08:48:53;95517.72;;;22.00;55.87
73383;BME280;61600;48.126;11.542;2023-05-23T08:51:25;95516.97;;;22.18;55.12
73383;BME280;61600;48.126;11.542;2023-05-23T08:53:52;95518.44;;;22.31;54.77
73383;BME280;61600;48.126;11.542;2023-05-23T08:56:21;95524.59;;;22.40;55.10
73383;BME280;61600;48.126;11.542;2023-05-23T08:58:48;95519.00;;;22.75;54.22
73383;BME280;61600;48.126;11.542;2023-05-23T09:01:17;95510.28;;;22.58;53.87
73383;BME280;61600;48.126;11.542;2023-05-23T09:03:44;95524.44;;;21.99;56.05
73383;BME280;61600;48.126;11.542;2023-05-23T09:06:10;95517.72;;;22.00;55.64
73383;BME280;61600;48.126;11.542;2023-05-23T09:08:37;95523.22;;;22.15;55.87
73383;BME280;61600;48.126;11.542;2023-05-23T09:11:08;95526.03;;;22.54;54.39
73383;BME280;61600;48.126;11.542;2023-05-23T09:13:37;95516.88;;;22.69;54.26
73383;BME280;61600;48.126;11.542;2023-05-23T09:16:08;95520.16;;;22.74;54.66
73383;BME280;61600;48.126;11.542;2023-05-23T09:18:38;95535.25;;;22.77;53.64
73383;BME280;61600;48.126;11.542;2023-05-23T09:21:06;95531.38;;;22.62;55.07
73383;BME280;61600;48.126;11.542;2023-05-23T09:23:33;95531.31;;;22.24;55.59
73383;BME280;61600;48.126;11.542;2023-05-23T09:26:03;95535.09;;;22.51;54.74
73383;BME280;61600;48.126;11.542;2023-05-23T09:28:34;95533.44;;;22.11;56.24
73383;BME280;61600;48.126;11.542;2023-05-23T09:31:01;95530.13;;;22.60;54.42
73383;BME280;61600;48.126;11.542;2023-05-23T09:33:46;95532.00;;;22.56;54.86
73383;BME280;61600;48.126;11.542;2023-05-23T09:36:13;95534.44;;;22.76;54.30
73383;BME280;61600;48.126;11.542;2023-05-23T09:38:40;95530.66;;;22.84;53.74
73383;BME280;61600;48.126;11.542;2023-05-23T09:41:06;95527.41;;;22.63;54.12
73383;BME280;61600;48.126;11.542;2023-05-23T09:43:32;95533.63;;;22.57;54.70
73383;BME280;61600;48.126;11.542;2023-05-23T09:46:09;95533.78;;;22.45;54.61
73383;BME280;61600;48.126;11.542;2023-05-23T09:48:36;95536.78;;;22.20;55.23
73383;BME280;61600;48.126;11.542;2023-05-23T09:51:05;95536.56;;;22.45;54.83
73383;BME280;61600;48.126;11.542;2023-05-23T09:53:32;95540.75;;;22.38;54.99
73383;BME280;61600;48.126;11.542;2023-05-23T09:55:58;95534.88;;;22.40;54.86
73383;BME280;61600;48.126;11.542;2023-05-23T09:58:25;95525.97;;;22.50;54.42
73383;BME280;61600;48.126;11.542;2023-05-23T10:00:52;95529.69;;;22.58;54.48
73383;BME280;61600;48.126;11.542;2023-05-23T10:03:28;95530.59;;;22.81;53.19
73383;BME280;61600;48.126;11.542;2023-05-23T10:05:59;95533.53;;;22.69;53.83
73383;BME280;61600;48.126;11.542;2023-05-23T10:08:31;95536.66;;;22.67;54.08
73383;BME280;61600;48.126;11.542;2023-05-23T10:13:45;95526.81;;;22.16;55.66
73383;BME280;61600;48.126;11.542;2023-05-23T10:19:15;95525.47;;;22.10;55.21
73383;BME280;61600;48.126;11.542;2023-05-23T10:21:43;95535.13;;;22.35;55.45
73383;BME280;61600;48.126;11.542;2023-05-23T10:24:14;95527.78;;;22.42;55.19
73383;BME280;61600;48.126;11.542;2023-05-23T10:26:40;95523.31;;;22.19;55.38
73383;BME280;61600;48.126;11.542;2023-05-23T10:29:08;95515.88;;;22.23;54.83
73383;BME280;61600;48.126;11.542;2023-05-23T10:31:35;95516.97;;;22.18;55.23
73383;BME280;61600;48.126;11.542;2023-05-23T10:34:13;95524.94;;;21.88;56.09
73383;BME280;61600;48.126;11.542;2023-05-23T10:39:41;95517.38;;;22.20;55.12
73383;BME280;61600;48.126;11.542;2023-05-23T10:42:16;95522.38;;;22.30;54.83
73383;BME280;61600;48.126;11.542;2023-05-23T10:44:43;95516.47;;;22.32;54.67
73383;BME280;61600;48.126;11.542;2023-05-23T10:47:09;95515.88;;;22.42;54.38
73383;BME280;61600;48.126;11.542;2023-05-23T10:49:50;95515.69;;;22.89;53.79
73383;BME280;61600;48.126;11.542;2023-05-23T10:52:17;95511.56;;;23.02;52.73
73383;BME280;61600;48.126;11.542;2023-05-23T10:54:45;95513.13;;;23.42;51.42
73383;BME280;61600;48.126;11.542;2023-05-23T10:57:15;95522.13;;;23.58;50.09
73383;BME280;61600;48.126;11.542;2023-05-23T10:59:41;95518.16;;;23.59;50.06
73383;BME280;61600;48.126;11.542;2023-05-23T11:02:15;95527.38;;;23.89;49.08
73383;BME280;61600;48.126;11.542;2023-05-23T11:04:43;95520.88;;;24.04;49.29
73383;BME280;61600;48.126;11.542;2023-05-23T11:07:38;95521.16;;;23.27;51.32
73383;BME280;61600;48.126;11.542;2023-05-23T11:10:09;95515.22;;;23.48;50.41
73383;BME280;61600;48.126;11.542;2023-05-23T11:12:38;95507.81;;;23.56;50.50
73383;BME280;61600;48.126;11.542;2023-05-23T11:17:52;95511.09;;;23.87;47.99
73383;BME280;61600;48.126;11.542;2023-05-23T11:20:27;95497.38;;;23.98;46.64
73383;BME280;61600;48.126;11.542;2023-05-23T11:23:04;95496.16;;;23.96;47.89
73383;BME280;61600;48.126;11.542;2023-05-23T11:25:40;95490.53;;;24.18;47.08
73383;BME280;61600;48.126;11.542;2023-05-23T11:28:09;95468.53;;;24.66;45.50
73383;BME280;61600;48.126;11.542;2023-05-23T11:30:36;95480.56;;;25.10;45.19
73383;BME280;61600;48.126;11.542;2023-05-23T11:33:10;95481.25;;;25.41;44.33
73383;BME280;61600;48.126;11.542;2023-05-23T11:35:45;95480.94;;;25.49;43.54
73383;BME280;61600;48.126;11.542;2023-05-23T11:38:13;95476.44;;;25.81;43.10
73383;BME280;61600;48.126;11.542;2023-05-23T11:40:41;95479.97;;;25.71;42.90
73383;BME280;61600;48.126;11.542;2023-05-23T11:43:09;95479.56;;;26.24;42.45
73383;BME280;61600;48.126;11.542;2023-05-23T11:45:36;95472.16;;;25.95;42.55
73383;BME280;61600;48.126;11.542;2023-05-23T11:48:13;95485.00;;;25.55;42.45
73383;BME280;61600;48.126;11.542;2023-05-23T11:50:47;95471.75;;;25.93;43.32
73383;BME280;61600;48.126;11.542;2023-05-23T11:53:18;95465.97;;;26.22;41.96
73383;BME280;61600;48.126;11.542;2023-05-23T11:55:50;95463.59;;;26.21;42.03
73383;BME280;61600;48.126;11.542;2023-05-23T11:58:28;95463.91;;;26.12;42.13
73383;BME280;61600;48.126;11.542;2023-05-23T12:01:05;95461.63;;;25.26;44.23
73383;BME280;61600;48.126;11.542;2023-05-23T12:03:33;95464.13;;;24.98;45.25
73383;BME280;61600;48.126;11.542;2023-05-23T12:05:59;95459.06;;;25.07;44.87
73383;BME280;61600;48.126;11.542;2023-05-23T12:08:26;95457.59;;;25.20;44.62
73383;BME280;61600;48.126;11.542;2023-05-23T12:10:56;95471.84;;;25.56;43.63
73383;BME280;61600;48.126;11.542;2023-05-23T12:13:24;95465.00;;;25.97;42.78
73383;BME280;61600;48.126;11.542;2023-05-23T12:16:00;95465.28;;;25.78;43.50
73383;BME280;61600;48.126;11.542;2023-05-23T12:18:28;95458.16;;;26.46;41.92
73383;BME280;61600;48.126;11.542;2023-05-23T12:20:58;95464.66;;;26.81;41.76
73383;BME280;61600;48.126;11.542;2023-05-23T12:23:26;95467.13;;;26.94;40.79
73383;BME280;61600;48.126;11.542;2023-05-23T12:25:53;95454.13;;;26.40;42.16
73383;BME280;61600;48.126;11.542;2023-05-23T12:28:21;95478.03;;;25.79;42.86
73383;BME280;61600;48.126;11.542;2023-05-23T12:30:58;95472.50;;;25.42;43.06
73383;BME280;61600;48.126;11.542;2023-05-23T12:33:24;95468.78;;;25.68;42.45
73383;BME280;61600;48.126;11.542;2023-05-23T12:35:50;95471.44;;;26.08;41.89
73383;BME280;61600;48.126;11.542;2023-05-23T12:38:16;95477.41;;;25.52;42.34
73383;BME280;61600;48.126;11.542;2023-05-23T12:40:42;95472.03;;;25.77;42.55
73383;BME280;61600;48.126;11.542;2023-05-23T12:43:08;95481.84;;;25.20;44.86
73383;BME280;61600;48.126;11.542;2023-05-23T12:45:35;95475.66;;;24.67;45.90
73383;BME280;61600;48.126;11.542;2023-05-23T12:48:02;95470.25;;;24.81;45.81
73383;BME280;61600;48.126;11.542;2023-05-23T12:50:28;95474.50;;;25.01;44.75
73383;BME280;61600;48.126;11.542;2023-05-23T12:52:54;95470.59;;;25.50;43.83
73383;BME280;61600;48.126;11.542;2023-05-23T12:55:20;95467.22;;;26.32;42.09
73383;BME280;61600;48.126;11.542;2023-05-23T12:57:46;95476.75;;;27.21;41.36
73383;BME280;61600;48.126;11.542;2023-05-23T13:00:12;95468.06;;;27.58;39.61
73383;BME280;61600;48.126;11.542;2023-05-23T13:02:38;95479.09;;;26.98;41.12
73383;BME280;61600;48.126;11.542;2023-05-23T13:05:05;95471.81;;;26.72;41.34
73383;BME280;61600;48.126;11.542;2023-05-23T13:07:31;95477.56;;;26.24;41.77
73383;BME280;61600;48.126;11.542;2023-05-23T13:09:57;95473.91;;;26.96;40.61